Accueil
METAR-TAF:

METAR-TAF

Aéroports :

Pyongyang, Corée du Nord

Aéroport international de Sunan

latitude: 39-02N, longitude: 125-47E, altitude: 36 m

METAR: absent

Heure: 17:17 (08:47 UTC)

Prévision

Le bulletin a été fait il y a 4 heures et 57 minutes, à 03:50 UTC
Prévision valable du 24 à 06 UTC au 25 à 06 UTC
Vent 10 kt de nord-ouest
Visibilité: 5000 m
Nuages épars à une hauteur de 1300 ft
Nuages fragmentés à une hauteur de 1700 ft
brume

TAF: ZKPY 240350Z 2406/2506 32005MPS 5000 BR SCT013 BKN017

Observations et prévisions météorologiques de plus de 4000 aéroports (messages METAR et TAF).

Les stations disponibles sont représentées par des disques jaunes et rouges sur la carte.

Passer la souris dessus pour voir le nom de la station.

Cliquer dessus pour voir les observations et prévisions météorologiques.

Pour changer de carte: cliquez sur les boutons verts avec une croix noire pour zoomer, sur le bouton vert avec un tiret pour effectuer un zoom arrière, ou sur les flèches vertes pour les cartes adjacentes.


METAR-TAF: